createdAt,value
2022-09-15T00:01:21.463Z,24.12
2022-09-15T00:03:25.938Z,24.11
2022-09-15T00:05:30.270Z,24.13
2022-09-15T00:07:34.643Z,24.14
2022-09-15T00:09:38.936Z,24.15
2022-09-15T00:11:43.299Z,24.15
2022-09-15T00:13:47.637Z,24.15
2022-09-15T00:15:51.952Z,24.16
2022-09-15T00:17:56.303Z,24.15
2022-09-15T00:20:00.626Z,24.15
2022-09-15T00:22:05.019Z,24.19
2022-09-15T00:24:09.315Z,24.25
2022-09-15T00:26:13.673Z,24.25
2022-09-15T00:28:18.005Z,24.25
2022-09-15T00:30:22.347Z,24.22
2022-09-15T00:32:26.632Z,24.2
2022-09-15T00:34:30.988Z,24.17
2022-09-15T00:36:35.289Z,24.17
2022-09-15T00:38:39.586Z,24.17
2022-09-15T00:40:43.930Z,24.17
2022-09-15T00:42:48.225Z,24.17
2022-09-15T00:44:52.580Z,24.16
2022-09-15T00:47:15.516Z,24.17
2022-09-15T00:49:23.478Z,24.19
2022-09-15T00:51:27.800Z,24.19
2022-09-15T00:53:32.144Z,24.2
2022-09-15T00:55:36.436Z,24.2
2022-09-15T00:57:40.784Z,24.23
2022-09-15T00:59:45.066Z,24.21
2022-09-15T01:01:49.400Z,24.19
2022-09-15T01:03:53.922Z,24.19
2022-09-15T01:05:58.241Z,24.19
2022-09-15T01:08:02.538Z,24.18
2022-09-15T01:10:06.832Z,24.17
2022-09-15T01:12:11.180Z,24.17
2022-09-15T01:14:15.467Z,24.18
2022-09-15T01:16:32.333Z,24.17
2022-09-15T01:18:36.842Z,24.15
2022-09-15T01:20:41.173Z,24.13
2022-09-15T01:22:45.485Z,24.12
2022-09-15T01:24:49.849Z,24.1
2022-09-15T01:26:54.201Z,24.08
2022-09-15T01:28:58.515Z,24.08
2022-09-15T01:31:02.835Z,24.09
2022-09-15T01:33:07.135Z,24.12
2022-09-15T01:35:11.486Z,24.15
2022-09-15T01:37:15.829Z,24.16
2022-09-15T01:39:20.135Z,24.14
2022-09-15T01:41:24.443Z,24.11
2022-09-15T01:43:28.773Z,24.13
2022-09-15T01:45:33.168Z,24.13
2022-09-15T01:47:37.710Z,24.1
2022-09-15T01:49:42.012Z,24.13
2022-09-15T01:51:46.325Z,24.12
2022-09-15T01:53:50.709Z,24.1
2022-09-15T01:55:55.223Z,24.1
2022-09-15T01:57:59.499Z,24.1
2022-09-15T02:00:04.875Z,24.09
2022-09-15T02:02:09.199Z,24.08
2022-09-15T02:04:13.725Z,24.1
2022-09-15T02:06:18.031Z,24.1
2022-09-15T02:08:22.332Z,24.07
2022-09-15T02:10:26.642Z,24.09
2022-09-15T02:12:31.058Z,24.09
2022-09-15T02:14:35.352Z,24.1
2022-09-15T02:16:39.742Z,24.09
2022-09-15T02:18:44.279Z,24.08
2022-09-15T02:20:48.691Z,24.08
2022-09-15T02:22:53.021Z,24.08
2022-09-15T02:24:57.342Z,24.08
2022-09-15T02:27:01.708Z,24.06
2022-09-15T02:29:06.033Z,24.07
2022-09-15T02:31:10.401Z,24.07
2022-09-15T02:33:14.851Z,24.05
2022-09-15T02:35:19.163Z,24.04
2022-09-15T02:37:23.449Z,24.03
2022-09-15T02:39:27.862Z,24
2022-09-15T02:41:32.219Z,23.99
2022-09-15T02:43:36.533Z,23.98
2022-09-15T02:45:40.881Z,23.97
2022-09-15T02:47:45.501Z,23.99
2022-09-15T02:49:49.847Z,24
2022-09-15T02:51:54.170Z,24
2022-09-15T02:53:58.432Z,24
2022-09-15T02:56:02.761Z,24.01
2022-09-15T02:58:07.069Z,23.98
2022-09-15T03:00:11.411Z,23.98
2022-09-15T03:02:15.795Z,23.96
2022-09-15T03:04:20.313Z,23.97
2022-09-15T03:06:24.629Z,23.95
2022-09-15T03:08:28.897Z,23.97
2022-09-15T03:10:33.232Z,23.98
2022-09-15T03:12:37.537Z,23.96
2022-09-15T03:14:41.833Z,23.95
2022-09-15T03:16:46.195Z,23.94
2022-09-15T03:18:50.787Z,23.94
2022-09-15T03:20:55.063Z,23.93
2022-09-15T03:22:59.413Z,23.92
2022-09-15T03:25:03.707Z,23.9
2022-09-15T03:27:08.025Z,23.88
2022-09-15T03:29:12.348Z,23.86
2022-09-15T03:31:16.721Z,23.84
2022-09-15T03:33:21.223Z,23.82
2022-09-15T03:35:25.573Z,23.79
2022-09-15T03:37:29.893Z,23.8
2022-09-15T03:39:34.173Z,23.79
2022-09-15T03:41:38.506Z,23.78
2022-09-15T03:43:42.838Z,23.78
2022-09-15T03:45:47.154Z,23.75
2022-09-15T03:47:51.735Z,23.75
2022-09-15T03:49:56.057Z,23.78
2022-09-15T03:52:00.349Z,23.76
2022-09-15T03:54:04.698Z,23.77
2022-09-15T03:56:08.997Z,23.77
2022-09-15T03:58:13.292Z,23.76
2022-09-15T04:00:17.628Z,23.75
2022-09-15T04:02:21.965Z,23.74
2022-09-15T04:04:26.450Z,23.74
2022-09-15T04:06:30.775Z,23.71
2022-09-15T04:08:35.078Z,23.7
2022-09-15T04:10:39.391Z,23.69
2022-09-15T04:12:43.693Z,23.68
2022-09-15T04:14:47.998Z,23.68
2022-09-15T04:16:52.347Z,23.68
2022-09-15T04:18:56.635Z,23.67
2022-09-15T04:21:00.991Z,23.67
2022-09-15T04:23:05.276Z,23.66
2022-09-15T04:25:09.655Z,23.64
2022-09-15T04:27:13.947Z,23.66
2022-09-15T04:29:18.257Z,23.65
2022-09-15T04:31:22.637Z,23.63
2022-09-15T04:33:27.235Z,23.62
2022-09-15T04:35:31.566Z,23.62
2022-09-15T04:37:35.868Z,23.62
2022-09-15T04:39:40.167Z,23.61
2022-09-15T04:41:44.503Z,23.62
2022-09-15T04:43:48.849Z,23.63
2022-09-15T04:45:53.207Z,23.63
2022-09-15T04:47:57.559Z,23.63
2022-09-15T04:50:01.862Z,23.63
2022-09-15T04:52:09.559Z,23.64
2022-09-15T04:54:14.171Z,23.62
2022-09-15T04:56:18.496Z,23.65
2022-09-15T04:58:22.791Z,23.67
2022-09-15T05:00:27.093Z,23.67
2022-09-15T05:02:31.431Z,23.62
2022-09-15T05:04:36.132Z,23.62
2022-09-15T05:06:40.436Z,23.63
2022-09-15T05:08:44.767Z,23.63
2022-09-15T05:10:49.194Z,23.63
2022-09-15T05:12:53.494Z,23.67
2022-09-15T05:14:57.770Z,23.67
2022-09-15T05:17:02.075Z,23.66
2022-09-15T05:19:06.416Z,23.66
2022-09-15T05:21:10.692Z,23.66
2022-09-15T05:23:15.044Z,23.65
2022-09-15T05:25:19.338Z,23.64
2022-09-15T05:27:23.652Z,23.6
2022-09-15T05:29:27.973Z,23.6
2022-09-15T05:31:32.333Z,23.58
2022-09-15T05:33:36.851Z,23.57
2022-09-15T05:35:41.150Z,23.56
2022-09-15T05:37:45.462Z,23.57
2022-09-15T05:39:49.927Z,23.57
2022-09-15T05:41:54.329Z,23.57
2022-09-15T05:43:58.623Z,23.57
2022-09-15T05:46:02.947Z,23.58
2022-09-15T05:48:07.465Z,23.58
2022-09-15T05:50:11.796Z,23.55
2022-09-15T05:52:16.060Z,23.55
2022-09-15T05:54:20.387Z,23.56
2022-09-15T05:56:24.729Z,23.53
2022-09-15T05:58:29.055Z,23.53
2022-09-15T06:00:33.412Z,23.51
2022-09-15T06:02:37.750Z,23.51
2022-09-15T06:04:42.375Z,23.49
2022-09-15T06:06:46.706Z,23.49
2022-09-15T06:08:55.533Z,23.47
2022-09-15T06:11:03.554Z,23.45
2022-09-15T06:13:07.914Z,23.47
2022-09-15T06:15:12.239Z,23.46
2022-09-15T06:17:16.588Z,23.46
2022-09-15T06:19:20.958Z,23.44
2022-09-15T06:21:25.263Z,23.44
2022-09-15T06:23:29.544Z,23.43
2022-09-15T06:25:33.874Z,23.42
2022-09-15T06:27:38.194Z,23.42
2022-09-15T06:29:42.483Z,23.43
2022-09-15T06:31:46.870Z,23.45
2022-09-15T06:33:51.570Z,23.43
2022-09-15T06:35:56.813Z,23.45
2022-09-15T06:38:01.141Z,23.44
2022-09-15T06:40:05.535Z,23.44
2022-09-15T06:42:13.314Z,23.44
2022-09-15T06:44:18.172Z,23.44
2022-09-15T06:46:22.660Z,23.44
2022-09-15T06:48:27.308Z,23.44
2022-09-15T06:50:31.639Z,23.43
2022-09-15T06:52:35.952Z,23.43
2022-09-15T06:54:40.327Z,23.44
2022-09-15T06:56:44.645Z,23.43
2022-09-15T06:58:48.961Z,23.44
2022-09-15T07:00:53.373Z,23.45
2022-09-15T07:02:57.856Z,23.43
2022-09-15T07:05:02.870Z,23.45
2022-09-15T07:07:07.218Z,23.43
2022-09-15T07:09:11.543Z,23.43
2022-09-15T07:11:15.855Z,23.43
2022-09-15T07:13:20.204Z,23.4
2022-09-15T07:15:24.507Z,23.4
2022-09-15T07:17:28.882Z,23.38
2022-09-15T07:19:33.204Z,23.39
2022-09-15T07:21:37.511Z,23.37
2022-09-15T07:23:41.877Z,23.38
2022-09-15T07:25:46.337Z,23.39
2022-09-15T07:27:50.657Z,23.39
2022-09-15T07:29:55.024Z,23.4
2022-09-15T07:31:59.403Z,23.4
2022-09-15T07:34:03.970Z,23.4
2022-09-15T07:36:08.329Z,23.41
2022-09-15T07:38:12.640Z,23.4
2022-09-15T07:40:17.039Z,23.4
2022-09-15T07:42:21.863Z,23.41
2022-09-15T07:44:26.164Z,23.41
2022-09-15T07:46:30.481Z,23.42
2022-09-15T07:48:34.823Z,23.41
2022-09-15T07:50:39.178Z,23.42
2022-09-15T07:52:43.589Z,23.41
2022-09-15T07:54:47.889Z,23.4
2022-09-15T07:56:52.204Z,23.39
2022-09-15T07:58:56.649Z,23.39
2022-09-15T08:01:00.965Z,23.39
2022-09-15T08:03:05.722Z,23.39
2022-09-15T08:05:10.031Z,23.4
2022-09-15T08:07:14.404Z,23.41
2022-09-15T08:09:18.753Z,23.43
2022-09-15T08:11:23.089Z,23.41
2022-09-15T08:13:27.448Z,23.4
2022-09-15T08:15:31.728Z,23.4
2022-09-15T08:17:36.066Z,23.39
2022-09-15T08:19:40.429Z,23.4
2022-09-15T08:21:44.789Z,23.39
2022-09-15T08:23:49.138Z,23.41
2022-09-15T08:25:53.475Z,23.41
2022-09-15T08:27:57.862Z,23.41
2022-09-15T08:30:02.169Z,23.41
2022-09-15T08:32:07.244Z,23.43
2022-09-15T08:34:11.604Z,23.43
2022-09-15T08:36:15.957Z,23.44
2022-09-15T08:38:20.299Z,23.46
2022-09-15T08:40:24.812Z,23.46
2022-09-15T08:42:29.598Z,23.48
2022-09-15T08:44:34.049Z,23.48
2022-09-15T08:46:38.662Z,23.47
2022-09-15T08:48:43.206Z,23.48
2022-09-15T08:50:47.596Z,23.49
2022-09-15T08:52:51.946Z,23.49
2022-09-15T08:54:56.324Z,23.48
2022-09-15T08:57:00.610Z,23.49
2022-09-15T08:59:04.951Z,23.51
2022-09-15T09:01:09.655Z,23.51
2022-09-15T09:03:14.409Z,23.51
2022-09-15T09:05:18.916Z,23.52
2022-09-15T09:07:23.238Z,23.5
2022-09-15T09:09:27.596Z,23.49
2022-09-15T09:11:31.973Z,23.49
2022-09-15T09:13:36.309Z,23.51
2022-09-15T09:15:40.668Z,23.51
2022-09-15T09:17:45.378Z,23.51
2022-09-15T09:19:49.705Z,23.53
2022-09-15T09:21:54.045Z,23.53
2022-09-15T09:23:58.370Z,23.54
2022-09-15T09:26:02.680Z,23.54
2022-09-15T09:28:13.165Z,23.54
2022-09-15T09:30:17.502Z,23.55
2022-09-15T09:32:22.098Z,23.54
2022-09-15T09:34:26.586Z,23.55
2022-09-15T09:36:30.878Z,23.55
2022-09-15T09:38:35.233Z,23.56
2022-09-15T09:40:39.583Z,23.56
2022-09-15T09:42:44.017Z,23.54
2022-09-15T09:44:48.362Z,23.53
2022-09-15T09:46:52.728Z,23.54
2022-09-15T09:48:57.099Z,23.53
2022-09-15T09:51:01.486Z,23.53
2022-09-15T09:53:05.776Z,23.51
2022-09-15T09:55:10.095Z,23.51
2022-09-15T09:57:14.446Z,23.52
2022-09-15T09:59:18.779Z,23.52
2022-09-15T10:01:23.166Z,23.53
2022-09-15T10:03:32.151Z,23.55
2022-09-15T10:05:37.206Z,23.55
2022-09-15T10:07:41.818Z,23.54
2022-09-15T10:09:46.137Z,23.54
2022-09-15T10:11:50.506Z,23.54
2022-09-15T10:13:54.942Z,23.55
2022-09-15T10:15:59.286Z,23.57
2022-09-15T10:18:03.759Z,23.58
2022-09-15T10:20:08.059Z,23.59
2022-09-15T10:22:12.463Z,23.6
2022-09-15T10:24:18.142Z,23.59
2022-09-15T10:26:22.663Z,23.6
2022-09-15T10:28:26.987Z,23.6
2022-09-15T10:30:31.411Z,23.59
2022-09-15T10:32:35.744Z,23.58
2022-09-15T10:34:40.054Z,23.58
2022-09-15T10:36:44.375Z,23.58
2022-09-15T10:38:48.708Z,23.57
2022-09-15T10:40:53.040Z,23.56
2022-09-15T10:42:57.361Z,23.56
2022-09-15T10:45:01.682Z,23.55
2022-09-15T10:47:06.035Z,23.54
2022-09-15T10:49:10.640Z,23.54
2022-09-15T10:51:14.995Z,23.55
2022-09-15T10:53:19.346Z,23.57
2022-09-15T10:55:36.981Z,23.6
2022-09-15T10:57:56.672Z,23.59
2022-09-15T11:00:00.976Z,23.62
2022-09-15T11:02:05.371Z,23.64
2022-09-15T11:04:09.989Z,23.67
2022-09-15T11:06:14.360Z,23.71
2022-09-15T11:08:18.710Z,23.74
2022-09-15T11:10:23.033Z,23.75
2022-09-15T11:12:29.329Z,23.78
2022-09-15T11:14:33.976Z,23.78
2022-09-15T11:16:38.366Z,23.82
2022-09-15T11:18:43.024Z,23.83
2022-09-15T11:20:47.342Z,23.82
2022-09-15T11:22:51.664Z,23.83
2022-09-15T11:24:55.988Z,23.82
2022-09-15T11:27:00.564Z,23.8
2022-09-15T11:29:04.835Z,23.8
2022-09-15T11:31:09.223Z,23.78
2022-09-15T11:33:13.807Z,23.76
2022-09-15T11:35:18.097Z,23.76
2022-09-15T11:37:22.438Z,23.76
2022-09-15T11:39:26.742Z,23.76
2022-09-15T11:41:31.064Z,23.78
2022-09-15T11:43:35.404Z,23.77
2022-09-15T11:45:39.654Z,23.75
2022-09-15T11:47:43.961Z,23.73
2022-09-15T11:49:48.281Z,23.7
2022-09-15T11:51:52.629Z,23.71
2022-09-15T11:53:56.917Z,23.73
2022-09-15T11:56:01.215Z,23.73
2022-09-15T11:58:05.574Z,23.73
2022-09-15T12:00:09.907Z,23.73
2022-09-15T12:02:14.367Z,23.73
2022-09-15T12:04:18.961Z,23.74
2022-09-15T12:06:23.336Z,23.77
2022-09-15T12:08:27.685Z,23.78
2022-09-15T12:10:32.258Z,23.79
2022-09-15T12:12:36.559Z,23.79
2022-09-15T12:14:40.873Z,23.8
2022-09-15T12:16:45.204Z,23.81
2022-09-15T12:18:49.559Z,23.81
2022-09-15T12:20:53.918Z,23.79
2022-09-15T12:22:58.279Z,23.79
2022-09-15T12:25:02.632Z,23.78
2022-09-15T12:27:06.972Z,23.78
2022-09-15T12:29:11.332Z,23.78
2022-09-15T12:31:15.764Z,23.78
2022-09-15T12:33:20.303Z,23.78
2022-09-15T12:35:24.681Z,23.77
2022-09-15T12:37:29.099Z,23.77
2022-09-15T12:39:33.437Z,23.77
2022-09-15T12:41:37.822Z,23.77
2022-09-15T12:43:42.176Z,23.78
2022-09-15T12:45:46.515Z,23.76
2022-09-15T12:47:50.833Z,23.78
2022-09-15T12:49:55.183Z,23.78
2022-09-15T12:51:59.507Z,23.81
2022-09-15T12:54:03.821Z,23.83
2022-09-15T12:56:08.244Z,23.86
2022-09-15T12:58:12.558Z,23.89
2022-09-15T13:00:16.925Z,23.9
2022-09-15T13:02:21.358Z,23.9
2022-09-15T13:04:26.213Z,23.92
2022-09-15T13:06:30.517Z,23.92
2022-09-15T13:08:34.851Z,23.9
2022-09-15T13:10:39.142Z,23.89
2022-09-15T13:12:43.467Z,23.87
2022-09-15T13:14:47.780Z,23.89
2022-09-15T13:16:52.129Z,23.87
2022-09-15T13:18:56.463Z,23.84
2022-09-15T13:21:01.607Z,23.84
2022-09-15T13:23:05.971Z,23.83
2022-09-15T13:25:10.409Z,23.82
2022-09-15T13:27:14.756Z,23.83
2022-09-15T13:29:19.094Z,23.82
2022-09-15T13:31:23.455Z,23.81
2022-09-15T13:34:59.849Z,23.81
2022-09-15T13:40:28.874Z,23.8
2022-09-15T13:42:33.501Z,23.79
2022-09-15T13:44:37.897Z,23.77
2022-09-15T13:46:42.239Z,23.77
2022-09-15T13:48:46.570Z,23.75
2022-09-15T13:50:50.905Z,23.74
2022-09-15T13:52:55.214Z,23.74
2022-09-15T13:54:59.575Z,23.71
2022-09-15T13:57:03.951Z,23.71
2022-09-15T13:59:14.307Z,23.71
2022-09-15T14:01:21.279Z,23.69
2022-09-15T14:03:25.761Z,23.7
2022-09-15T14:05:30.119Z,23.68
2022-09-15T14:07:34.522Z,23.68
2022-09-15T14:09:38.866Z,23.68
2022-09-15T14:11:43.203Z,23.69
2022-09-15T14:13:47.476Z,23.73
2022-09-15T14:15:51.781Z,23.73
2022-09-15T14:17:56.102Z,23.78
2022-09-15T14:20:00.448Z,23.82
2022-09-15T14:22:04.827Z,23.87
2022-09-15T14:24:09.196Z,23.9
2022-09-15T14:26:13.557Z,23.95
2022-09-15T14:28:17.911Z,23.97
2022-09-15T14:30:22.218Z,24.01
2022-09-15T14:32:26.506Z,24.03
2022-09-15T14:34:30.814Z,24.06
2022-09-15T14:36:35.130Z,24.08
2022-09-15T14:38:39.501Z,24.1
2022-09-15T14:40:43.896Z,24.15
2022-09-15T14:42:48.399Z,24.19
2022-09-15T14:48:10.692Z,24.26
2022-09-15T14:50:15.021Z,24.28
2022-09-15T14:52:19.372Z,24.31
2022-09-15T14:54:23.689Z,24.32
2022-09-15T14:56:27.990Z,24.34
2022-09-15T14:58:32.307Z,24.35
2022-09-15T15:00:36.687Z,24.38
2022-09-15T15:02:41.350Z,24.41
2022-09-15T15:04:45.762Z,24.45
2022-09-15T15:06:50.264Z,24.47
2022-09-15T15:08:54.662Z,24.5
2022-09-15T15:10:59.003Z,24.52
2022-09-15T15:13:03.502Z,24.54
2022-09-15T15:15:07.906Z,24.53
2022-09-15T15:17:12.238Z,24.51
2022-09-15T15:19:16.628Z,24.51
2022-09-15T15:21:21.040Z,24.49
2022-09-15T15:23:25.428Z,24.48
2022-09-15T15:25:29.820Z,24.48
2022-09-15T15:27:34.194Z,24.46
2022-09-15T15:29:38.498Z,24.44
2022-09-15T15:31:42.925Z,24.44
2022-09-15T15:33:47.441Z,24.47
2022-09-15T15:35:51.755Z,24.46
2022-09-15T15:37:56.048Z,24.49
2022-09-15T15:40:00.554Z,24.52
2022-09-15T15:42:05.293Z,24.56
2022-09-15T15:44:09.662Z,24.6
2022-09-15T15:46:14.050Z,24.63
2022-09-15T15:48:18.686Z,24.67
2022-09-15T15:50:23.012Z,24.67
2022-09-15T15:52:27.286Z,24.65
2022-09-15T15:54:31.604Z,24.63
2022-09-15T15:56:37.964Z,24.62
2022-09-15T15:58:42.464Z,24.59
2022-09-15T16:00:47.054Z,24.57
2022-09-15T16:02:51.630Z,24.56
2022-09-15T16:04:55.964Z,24.55
2022-09-15T16:07:00.312Z,24.54
2022-09-15T16:09:04.638Z,24.53
2022-09-15T16:11:09.031Z,24.51
2022-09-15T16:13:13.431Z,24.52
2022-09-15T16:15:17.818Z,24.5
2022-09-15T16:17:22.221Z,24.49
2022-09-15T16:19:26.568Z,24.51
2022-09-15T16:21:30.944Z,24.48
2022-09-15T16:23:35.256Z,24.5
2022-09-15T16:25:39.585Z,24.5
2022-09-15T16:27:43.932Z,24.52
2022-09-15T16:29:48.292Z,24.5
2022-09-15T16:31:52.730Z,24.51
2022-09-15T16:33:57.294Z,24.51
2022-09-15T16:36:01.778Z,24.51
2022-09-15T16:38:06.191Z,24.48
2022-09-15T16:40:10.638Z,24.38
2022-09-15T16:42:15.415Z,24.26
2022-09-15T16:44:19.730Z,24.16
2022-09-15T16:46:24.101Z,24.07
2022-09-15T16:48:28.818Z,23.97
2022-09-15T16:50:33.169Z,23.91
2022-09-15T16:52:37.752Z,23.87
2022-09-15T16:54:43.222Z,23.84
2022-09-15T16:56:47.922Z,23.8
2022-09-15T16:58:56.101Z,23.75
2022-09-15T17:01:04.499Z,23.71
2022-09-15T17:03:09.256Z,23.69
2022-09-15T17:05:14.248Z,23.67
2022-09-15T17:07:18.782Z,23.62
2022-09-15T17:09:23.048Z,23.57
2022-09-15T17:11:27.557Z,23.51
2022-09-15T17:13:32.086Z,23.48
2022-09-15T17:15:36.779Z,23.43
2022-09-15T17:17:41.343Z,23.4
2022-09-15T17:19:45.562Z,23.36
2022-09-15T17:21:49.921Z,23.38
2022-09-15T17:23:54.332Z,23.35
2022-09-15T17:25:58.751Z,23.33
2022-09-15T17:28:03.103Z,23.3
2022-09-15T17:30:07.452Z,23.28
2022-09-15T17:32:11.848Z,23.26
2022-09-15T17:34:16.188Z,23.25
2022-09-15T17:36:20.558Z,23.26
2022-09-15T17:38:25.148Z,23.23
2022-09-15T17:40:29.595Z,23.2
2022-09-15T17:42:34.628Z,23.17
2022-09-15T17:44:39.251Z,23.14
2022-09-15T17:46:43.651Z,23.12
2022-09-15T17:48:48.450Z,23.09
2022-09-15T17:50:52.923Z,23.11
2022-09-15T17:52:57.373Z,23.12
2022-09-15T17:55:02.061Z,23.22
2022-09-15T17:57:06.695Z,23.29
2022-09-15T17:59:14.289Z,23.39
2022-09-15T18:01:20.701Z,23.48
2022-09-15T18:03:25.538Z,23.55
2022-09-15T18:05:30.297Z,23.63
2022-09-15T18:07:34.792Z,23.69
2022-09-15T18:09:39.818Z,23.77
2022-09-15T18:11:44.208Z,23.83
2022-09-15T18:13:49.349Z,23.84
2022-09-15T18:15:54.321Z,23.82
2022-09-15T18:17:59.701Z,23.75
2022-09-15T18:20:04.551Z,23.69
2022-09-15T18:22:09.252Z,23.65
2022-09-15T18:24:14.088Z,23.59
2022-09-15T18:26:21.506Z,23.55
2022-09-15T18:28:31.326Z,23.52
2022-09-15T18:30:35.857Z,23.5
2022-09-15T18:32:40.751Z,23.53
2022-09-15T18:34:45.698Z,23.5
2022-09-15T18:36:50.428Z,23.47
2022-09-15T18:38:55.872Z,23.46
2022-09-15T18:41:00.783Z,23.47
2022-09-15T18:43:05.640Z,23.44
2022-09-15T18:45:10.352Z,23.44
2022-09-15T18:47:14.912Z,23.41
2022-09-15T18:49:19.559Z,23.41
2022-09-15T18:51:34.813Z,23.4
2022-09-15T18:53:55.209Z,23.37
2022-09-15T18:56:00.013Z,23.33
2022-09-15T18:58:05.351Z,23.31
2022-09-15T19:00:10.013Z,23.29
2022-09-15T19:02:14.892Z,23.26
2022-09-15T19:04:19.872Z,23.31
2022-09-15T19:06:24.168Z,23.36
2022-09-15T19:08:28.526Z,23.41
2022-09-15T19:10:33.026Z,23.49
2022-09-15T19:12:37.444Z,23.54
2022-09-15T19:14:44.573Z,23.6
2022-09-15T19:16:57.826Z,23.68
2022-09-15T19:19:02.881Z,23.71
2022-09-15T19:21:07.351Z,23.74
2022-09-15T19:23:11.708Z,23.77
2022-09-15T19:25:16.028Z,23.81
2022-09-15T19:27:20.375Z,23.84
2022-09-15T19:29:24.713Z,23.89
2022-09-15T19:31:29.159Z,23.94
2022-09-15T19:33:33.592Z,23.98
2022-09-15T19:35:37.951Z,24.02
2022-09-15T19:37:42.253Z,24.05
2022-09-15T19:39:46.899Z,24.07
2022-09-15T19:41:51.416Z,24.08
2022-09-15T19:43:55.819Z,24.09
2022-09-15T19:46:00.367Z,24.08
2022-09-15T19:48:04.919Z,24.08
2022-09-15T19:50:09.277Z,24.08
2022-09-15T19:52:13.643Z,24.12
2022-09-15T19:54:18.075Z,24.15
2022-09-15T19:56:22.655Z,24.12
2022-09-15T19:58:27.021Z,24.1
2022-09-15T20:00:31.409Z,24.09
2022-09-15T20:02:36.876Z,24.03
2022-09-15T20:07:31.129Z,23.9
2022-09-15T20:09:37.466Z,23.83
2022-09-15T20:11:47.036Z,23.78
2022-09-15T20:13:54.667Z,23.72
2022-09-15T20:16:00.951Z,23.65
2022-09-15T20:18:07.736Z,23.65
2022-09-15T20:20:18.522Z,23.64
2022-09-15T20:22:24.865Z,23.64
2022-09-15T20:24:29.507Z,23.64
2022-09-15T20:26:33.993Z,23.63
2022-09-15T20:28:40.455Z,23.61
2022-09-15T20:30:47.875Z,23.59
2022-09-15T20:32:57.459Z,23.58
2022-09-15T20:35:03.675Z,23.58
2022-09-15T20:37:09.046Z,23.58
2022-09-15T20:39:14.347Z,23.57
2022-09-15T20:41:18.829Z,23.57
2022-09-15T20:43:24.837Z,23.56
2022-09-15T20:45:37.174Z,23.54
2022-09-15T20:47:43.203Z,23.51
2022-09-15T20:49:48.684Z,23.5
2022-09-15T20:51:54.695Z,23.5
2022-09-15T20:54:00.078Z,23.49
2022-09-15T20:56:05.149Z,23.47
2022-09-15T20:58:10.974Z,23.45
2022-09-15T21:00:16.333Z,23.43
2022-09-15T21:02:21.722Z,23.45
2022-09-15T21:04:27.339Z,23.45
2022-09-15T21:06:31.878Z,23.45
2022-09-15T21:08:36.808Z,23.43
2022-09-15T21:10:41.480Z,23.43
2022-09-15T21:12:45.946Z,23.45
2022-09-15T21:14:50.533Z,23.41
2022-09-15T21:16:55.053Z,23.39
2022-09-15T21:18:59.636Z,23.39
2022-09-15T21:21:04.100Z,23.38
2022-09-15T21:23:08.573Z,23.38
2022-09-15T21:25:13.067Z,23.39
2022-09-15T21:27:17.495Z,23.39
2022-09-15T21:29:21.903Z,23.37
2022-09-15T21:31:26.422Z,23.38
2022-09-15T21:33:31.131Z,23.38
2022-09-15T21:35:35.578Z,23.37
2022-09-15T21:37:40.003Z,23.37
2022-09-15T21:39:44.414Z,23.38
2022-09-15T21:41:48.889Z,23.35
2022-09-15T21:43:53.353Z,23.36
2022-09-15T21:45:58.373Z,23.35
2022-09-15T21:48:03.002Z,23.37
2022-09-15T21:50:07.424Z,23.36
2022-09-15T21:52:11.842Z,23.34
2022-09-15T21:54:16.285Z,23.3
2022-09-15T21:56:20.775Z,23.31
2022-09-15T21:58:26.083Z,23.33
2022-09-15T22:00:30.677Z,23.3
2022-09-15T22:02:35.096Z,23.29
2022-09-15T22:04:39.660Z,23.3
2022-09-15T22:06:44.106Z,23.32
2022-09-15T22:08:48.542Z,23.3
2022-09-15T22:10:53.018Z,23.31
2022-09-15T22:12:57.459Z,23.33
2022-09-15T22:15:01.944Z,23.34
2022-09-15T22:17:06.405Z,23.31
2022-09-15T22:19:10.833Z,23.33
2022-09-15T22:21:15.269Z,23.3
2022-09-15T22:23:19.740Z,23.31
2022-09-15T22:25:24.203Z,23.26
2022-09-15T22:27:28.673Z,23.24
2022-09-15T22:29:33.117Z,23.23
2022-09-15T22:31:37.777Z,23.24
2022-09-15T22:33:42.470Z,23.25
2022-09-15T22:35:46.941Z,23.25
2022-09-15T22:37:51.403Z,23.26
2022-09-15T22:39:59.577Z,23.26
2022-09-15T22:42:04.459Z,23.27
2022-09-15T22:44:08.943Z,23.25
2022-09-15T22:46:13.433Z,23.26
2022-09-15T22:48:18.207Z,23.25
2022-09-15T22:50:22.665Z,23.25
2022-09-15T22:52:27.094Z,23.26
2022-09-15T22:54:31.516Z,23.24
2022-09-15T22:56:36.001Z,23.24
2022-09-15T22:58:40.439Z,23.26
2022-09-15T23:00:44.992Z,23.26
2022-09-15T23:02:50.564Z,23.26
2022-09-15T23:04:55.201Z,23.24
2022-09-15T23:06:59.553Z,23.22
2022-09-15T23:09:03.869Z,23.22
2022-09-15T23:11:08.277Z,23.23
2022-09-15T23:13:12.615Z,23.22
2022-09-15T23:15:16.904Z,23.22
2022-09-15T23:17:21.221Z,23.23
2022-09-15T23:19:25.535Z,23.22
2022-09-15T23:21:29.851Z,23.21
2022-09-15T23:23:34.167Z,23.21
2022-09-15T23:25:38.492Z,23.22
2022-09-15T23:27:42.823Z,23.22
2022-09-15T23:29:47.121Z,23.21
2022-09-15T23:31:51.466Z,23.2
2022-09-15T23:33:56.041Z,23.18
2022-09-15T23:36:00.335Z,23.19
2022-09-15T23:38:04.728Z,23.19
2022-09-15T23:40:09.106Z,23.21
2022-09-15T23:42:16.807Z,23.2
2022-09-15T23:44:23.008Z,23.22
2022-09-15T23:46:27.494Z,23.2
2022-09-15T23:48:31.978Z,23.19
2022-09-15T23:50:36.455Z,23.19
2022-09-15T23:52:40.815Z,23.17
2022-09-15T23:54:45.144Z,23.17
2022-09-15T23:56:49.434Z,23.17
2022-09-15T23:58:53.753Z,23.19
